createdAt,value
2019-02-09T00:00:38.698Z,10.83
2019-02-09T00:03:42.565Z,10.97
2019-02-09T00:06:46.443Z,10.27
2019-02-09T00:09:50.410Z,9.77
2019-02-09T00:12:54.213Z,9.93
2019-02-09T00:15:58.144Z,10.33
2019-02-09T00:19:03.670Z,10.03
2019-02-09T00:22:07.667Z,9.97
2019-02-09T00:25:11.660Z,9.90
2019-02-09T00:28:15.547Z,10.27
2019-02-09T00:31:19.506Z,10.30
2019-02-09T00:34:23.322Z,11.17
2019-02-09T00:37:27.110Z,9.77
2019-02-09T00:40:31.080Z,10.90
2019-02-09T00:43:34.882Z,10.30
2019-02-09T00:46:38.742Z,8.83
2019-02-09T00:49:42.560Z,9.17
2019-02-09T00:52:46.453Z,9.37
2019-02-09T00:55:50.340Z,9.73
2019-02-09T00:58:54.123Z,8.23
2019-02-09T01:01:57.914Z,8.83
2019-02-09T01:05:01.702Z,9.13
2019-02-09T01:08:05.881Z,9.67
2019-02-09T01:11:09.841Z,9.50
2019-02-09T01:14:13.709Z,10.27
2019-02-09T01:17:17.517Z,10.33
2019-02-09T01:20:22.860Z,9.70
2019-02-09T01:23:26.760Z,10.33
2019-02-09T01:26:30.641Z,10.00
2019-02-09T01:29:34.575Z,10.73
2019-02-09T01:32:38.634Z,9.33
2019-02-09T01:35:42.506Z,9.57
2019-02-09T01:38:46.305Z,9.80
2019-02-09T01:41:50.296Z,10.90
2019-02-09T01:44:54.089Z,10.57
2019-02-09T01:47:58.153Z,9.97
2019-02-09T01:51:01.992Z,11.00
2019-02-09T01:54:05.938Z,10.27
2019-02-09T01:57:09.773Z,10.00
2019-02-09T02:00:16.118Z,9.63
2019-02-09T02:03:19.920Z,9.23
2019-02-09T02:06:23.782Z,9.30
2019-02-09T02:09:27.661Z,9.07
2019-02-09T02:12:31.543Z,7.93
2019-02-09T02:15:35.590Z,9.40
2019-02-09T02:18:39.456Z,9.67
2019-02-09T02:21:43.326Z,10.07
2019-02-09T02:24:47.226Z,10.30
2019-02-09T02:27:51.036Z,9.27
2019-02-09T02:30:54.837Z,8.77
2019-02-09T02:33:58.634Z,8.00
2019-02-09T02:37:02.500Z,8.70
2019-02-09T02:40:06.766Z,8.37
2019-02-09T02:43:10.620Z,8.40
2019-02-09T02:46:14.502Z,7.77
2019-02-09T02:49:18.435Z,8.30
2019-02-09T02:52:22.278Z,7.70
2019-02-09T02:55:27.247Z,6.03
2019-02-09T02:58:31.119Z,5.97
2019-02-09T03:01:34.924Z,6.63
2019-02-09T03:04:38.792Z,6.23
2019-02-09T03:07:42.711Z,6.47
2019-02-09T03:10:46.589Z,7.00
2019-02-09T03:13:50.392Z,6.60
2019-02-09T03:16:54.256Z,5.87
2019-02-09T03:19:58.140Z,5.63
2019-02-09T03:23:02.036Z,7.07
2019-02-09T03:26:05.923Z,6.47
2019-02-09T03:29:09.876Z,5.67
2019-02-09T03:32:13.755Z,4.93
2019-02-09T03:35:18.226Z,5.57
2019-02-09T03:38:22.048Z,5.60
2019-02-09T03:41:25.837Z,4.80
2019-02-09T03:44:29.722Z,5.50
2019-02-09T03:47:33.501Z,5.47
2019-02-09T03:50:37.389Z,4.80
2019-02-09T03:53:41.284Z,4.80
2019-02-09T03:56:45.194Z,5.33
2019-02-09T03:59:48.964Z,5.77
2019-02-09T04:02:53.139Z,4.80
2019-02-09T04:05:57.089Z,4.80
2019-02-09T04:09:00.888Z,4.83
2019-02-09T04:12:04.852Z,4.67
2019-02-09T04:15:10.131Z,4.77
2019-02-09T04:18:13.998Z,4.10
2019-02-09T04:21:17.836Z,5.27
2019-02-09T04:24:21.623Z,3.90
2019-02-09T04:27:25.435Z,5.23
2019-02-09T04:30:30.918Z,5.13
2019-02-09T04:33:34.785Z,4.57
2019-02-09T04:36:38.569Z,5.43
2019-02-09T04:39:42.357Z,4.50
2019-02-09T04:42:46.164Z,5.03
2019-02-09T04:45:49.987Z,4.00
2019-02-09T04:48:53.778Z,4.40
2019-02-09T04:51:57.574Z,4.23
2019-02-09T04:55:01.472Z,5.00
2019-02-09T04:58:05.408Z,5.20
2019-02-09T05:01:14.158Z,5.00
2019-02-09T05:04:14.941Z,4.17
2019-02-09T05:07:18.876Z,4.40
2019-02-09T05:10:22.830Z,4.77
2019-02-09T05:13:26.630Z,4.17
2019-02-09T05:16:30.442Z,5.13
2019-02-09T05:19:34.269Z,5.87
2019-02-09T05:22:38.144Z,5.77
2019-02-09T05:25:41.972Z,5.30
2019-02-09T05:28:45.791Z,5.73
2019-02-09T05:31:49.634Z,4.80
2019-02-09T05:34:53.454Z,4.93
2019-02-09T05:37:57.319Z,4.73
2019-02-09T05:41:01.215Z,5.60
2019-02-09T05:44:05.282Z,4.83
2019-02-09T05:47:09.159Z,4.83
2019-02-09T05:50:14.342Z,2.20
2019-02-09T05:53:18.123Z,2.07
2019-02-09T05:56:21.929Z,1.53
2019-02-09T05:59:25.702Z,3.27
2019-02-09T06:02:29.504Z,2.67
2019-02-09T06:05:33.352Z,3.13
2019-02-09T06:08:37.168Z,2.10
2019-02-09T06:11:41.119Z,3.00
2019-02-09T06:14:44.948Z,1.57
2019-02-09T06:17:48.980Z,1.90
2019-02-09T06:20:52.778Z,2.10
2019-02-09T06:23:56.665Z,1.40
2019-02-09T06:27:00.537Z,2.00
2019-02-09T06:30:05.601Z,2.10
2019-02-09T06:33:09.407Z,2.53
2019-02-09T06:36:13.202Z,2.43
2019-02-09T06:39:16.982Z,2.07
2019-02-09T06:42:20.977Z,6.10
2019-02-09T06:45:24.975Z,2.70
2019-02-09T06:48:30.051Z,1.90
2019-02-09T06:51:33.886Z,2.07
2019-02-09T06:54:37.665Z,2.50
2019-02-09T06:57:41.480Z,1.53
2019-02-09T07:00:45.322Z,2.47
2019-02-09T07:03:49.150Z,1.93
2019-02-09T07:06:53.003Z,2.10
2019-02-09T07:09:56.875Z,1.70
2019-02-09T07:13:00.744Z,2.70
2019-02-09T07:16:04.921Z,3.60
2019-02-09T07:19:08.721Z,2.43
2019-02-09T07:22:12.545Z,2.80
2019-02-09T07:25:16.613Z,2.07
2019-02-09T07:28:20.508Z,2.00
2019-02-09T07:31:24.327Z,2.43
2019-02-09T07:34:28.217Z,2.00
2019-02-09T07:37:32.141Z,2.30
2019-02-09T07:40:36.097Z,2.30
2019-02-09T07:43:39.894Z,1.60
2019-02-09T07:46:43.677Z,1.93
2019-02-09T07:49:47.505Z,1.93
2019-02-09T07:52:51.475Z,2.10
2019-02-09T07:55:55.431Z,3.57
2019-02-09T07:58:59.226Z,2.53
2019-02-09T08:02:04.619Z,4.27
2019-02-09T08:05:09.380Z,4.13
2019-02-09T08:08:13.337Z,3.17
2019-02-09T08:11:17.142Z,3.23
2019-02-09T08:14:21.006Z,2.67
2019-02-09T08:17:24.815Z,2.87
2019-02-09T08:20:29.389Z,2.70
2019-02-09T08:23:33.185Z,3.07
2019-02-09T08:26:37.038Z,2.60
2019-02-09T08:29:40.846Z,2.27
2019-02-09T08:32:44.631Z,3.27
2019-02-09T08:35:48.529Z,2.93
2019-02-09T08:38:52.436Z,2.57
2019-02-09T08:41:56.210Z,2.60
2019-02-09T08:45:00.161Z,3.00
2019-02-09T08:48:04.368Z,4.63
2019-02-09T08:51:11.152Z,3.07
2019-02-09T08:54:14.939Z,2.77
2019-02-09T08:57:18.743Z,2.47
2019-02-09T09:00:24.918Z,2.20
2019-02-09T09:03:28.753Z,2.53
2019-02-09T09:06:32.543Z,2.37
2019-02-09T09:09:36.422Z,2.87
2019-02-09T09:12:40.276Z,2.97
2019-02-09T09:15:49.596Z,3.00
2019-02-09T09:18:53.394Z,2.87
2019-02-09T09:21:57.185Z,3.17
2019-02-09T09:25:01.024Z,3.10
2019-02-09T09:28:05.280Z,2.07
2019-02-09T09:31:09.193Z,2.40
2019-02-09T09:34:13.160Z,2.40
2019-02-09T09:37:16.968Z,2.47
2019-02-09T09:40:23.617Z,3.47
2019-02-09T09:43:27.499Z,2.57
2019-02-09T09:46:31.377Z,2.00
2019-02-09T09:49:35.201Z,2.93
2019-02-09T09:52:38.985Z,3.37
2019-02-09T09:55:42.924Z,3.57
2019-02-09T09:58:46.899Z,2.93
2019-02-09T10:01:50.700Z,3.20
2019-02-09T10:04:54.564Z,2.40
2019-02-09T10:07:58.418Z,3.33
2019-02-09T10:11:02.234Z,2.37
2019-02-09T10:14:08.954Z,2.07
2019-02-09T10:17:11.728Z,4.27
2019-02-09T10:20:17.729Z,3.90
2019-02-09T10:23:21.540Z,3.13
2019-02-09T10:26:25.366Z,3.43
2019-02-09T10:29:29.236Z,2.63
2019-02-09T10:32:33.203Z,3.50
2019-02-09T10:35:36.986Z,3.17
2019-02-09T10:38:40.818Z,3.60
2019-02-09T10:41:44.698Z,3.67
2019-02-09T10:44:48.809Z,2.77
2019-02-09T10:47:52.766Z,3.70
2019-02-09T10:50:56.675Z,5.30
2019-02-09T10:54:00.476Z,2.93
2019-02-09T10:57:04.550Z,2.90
2019-02-09T11:00:15.806Z,3.40
2019-02-09T11:03:20.278Z,3.90
2019-02-09T11:06:24.144Z,2.87
2019-02-09T11:09:28.096Z,2.37
2019-02-09T11:12:31.956Z,2.70
2019-02-09T11:15:35.934Z,3.10
2019-02-09T11:18:39.806Z,4.53
2019-02-09T11:21:43.696Z,4.20
2019-02-09T11:24:47.542Z,3.23
2019-02-09T11:27:51.492Z,2.90
2019-02-09T11:30:55.837Z,2.83
2019-02-09T11:33:59.641Z,3.67
2019-02-09T11:37:03.621Z,2.87
2019-02-09T11:40:07.940Z,3.80
2019-02-09T11:43:11.820Z,3.70
2019-02-09T11:46:15.699Z,3.10
2019-02-09T11:49:19.518Z,3.77
2019-02-09T11:52:23.369Z,3.53
2019-02-09T11:55:27.182Z,3.23
2019-02-09T11:58:31.322Z,3.23
2019-02-09T12:01:36.114Z,4.60
2019-02-09T12:04:40.021Z,3.30
2019-02-09T12:07:44.002Z,3.30
2019-02-09T12:10:47.953Z,3.77
2019-02-09T12:13:55.436Z,3.80
2019-02-09T12:16:57.362Z,2.43
2019-02-09T12:20:01.162Z,3.37
2019-02-09T12:23:05.215Z,4.23
2019-02-09T12:26:09.196Z,3.90
2019-02-09T12:29:12.973Z,3.60
2019-02-09T12:32:16.893Z,4.10
2019-02-09T12:35:20.979Z,3.63
2019-02-09T12:38:24.860Z,3.03
2019-02-09T12:41:28.740Z,3.33
2019-02-09T12:44:32.658Z,3.20
2019-02-09T12:47:36.550Z,4.00
2019-02-09T12:50:40.533Z,5.07
2019-02-09T12:53:44.385Z,3.80
2019-02-09T12:56:48.205Z,4.43
2019-02-09T12:59:52.053Z,4.53
2019-02-09T13:02:56.584Z,5.33
2019-02-09T13:06:00.524Z,4.83
2019-02-09T13:09:07.787Z,4.23
2019-02-09T13:12:11.734Z,5.83
2019-02-09T13:15:18.396Z,5.27
2019-02-09T13:18:22.297Z,5.40
2019-02-09T13:21:26.116Z,3.97
2019-02-09T13:24:29.975Z,4.17
2019-02-09T13:27:33.858Z,4.77
2019-02-09T13:30:37.954Z,6.37
2019-02-09T13:33:41.786Z,5.60
2019-02-09T13:36:45.782Z,3.53
2019-02-09T13:39:49.613Z,4.73
2019-02-09T13:42:53.410Z,3.97
2019-02-09T13:45:57.212Z,2.83
2019-02-09T13:49:01.038Z,4.00
2019-02-09T13:52:04.929Z,5.00
2019-02-09T13:55:09.150Z,4.67
2019-02-09T13:58:13.137Z,4.50
2019-02-09T14:01:17.012Z,3.77
2019-02-09T14:04:20.940Z,5.70
2019-02-09T14:07:24.730Z,4.70
2019-02-09T14:10:28.851Z,4.80
2019-02-09T14:13:32.651Z,4.90
2019-02-09T14:16:38.795Z,3.87
2019-02-09T14:19:41.998Z,5.43
2019-02-09T14:22:45.826Z,5.20
2019-02-09T14:25:49.699Z,5.70
2019-02-09T14:28:53.512Z,5.13
2019-02-09T14:31:57.487Z,6.60
2019-02-09T14:35:01.294Z,4.60
2019-02-09T14:38:05.358Z,5.97
2019-02-09T14:41:09.228Z,5.53
2019-02-09T14:44:13.136Z,5.90
2019-02-09T14:47:17.007Z,5.77
2019-02-09T14:50:21.381Z,5.67
2019-02-09T14:53:25.206Z,6.27
2019-02-09T14:56:29.023Z,7.63
2019-02-09T14:59:32.897Z,6.43
2019-02-09T15:02:37.244Z,5.90
2019-02-09T15:05:41.340Z,6.60
2019-02-09T15:08:45.212Z,5.97
2019-02-09T15:11:49.071Z,4.97
2019-02-09T15:14:52.865Z,5.40
2019-02-09T15:17:56.702Z,5.70
2019-02-09T15:21:01.767Z,4.97
2019-02-09T15:24:06.950Z,6.50
2019-02-09T15:27:10.855Z,5.30
2019-02-09T15:30:20.397Z,5.73
2019-02-09T15:33:24.285Z,4.10
2019-02-09T15:36:28.129Z,6.40
2019-02-09T15:39:31.992Z,5.40
2019-02-09T15:42:35.790Z,7.50
2019-02-09T15:45:39.693Z,4.83
2019-02-09T15:48:43.567Z,7.33
2019-02-09T15:51:47.381Z,6.30
2019-02-09T15:54:51.195Z,6.33
2019-02-09T15:57:54.998Z,8.00
2019-02-09T16:00:58.887Z,6.10
2019-02-09T16:04:02.674Z,5.27
2019-02-09T16:07:06.668Z,4.53
2019-02-09T16:10:10.860Z,6.17
2019-02-09T16:13:14.821Z,5.73
2019-02-09T16:16:18.728Z,7.13
2019-02-09T16:19:22.527Z,4.73
2019-02-09T16:22:27.188Z,7.70
2019-02-09T16:25:30.989Z,7.77
2019-02-09T16:28:34.811Z,7.23
2019-02-09T16:31:38.685Z,6.17
2019-02-09T16:34:42.573Z,6.43
2019-02-09T16:37:46.511Z,6.47
2019-02-09T16:40:50.427Z,8.07
2019-02-09T16:43:54.221Z,6.93
2019-02-09T16:46:58.013Z,5.23
2019-02-09T16:50:01.834Z,7.90
2019-02-09T16:53:06.202Z,7.10
2019-02-09T16:56:10.112Z,6.60
2019-02-09T16:59:13.883Z,7.77
2019-02-09T17:02:17.774Z,8.67
2019-02-09T17:05:22.516Z,7.47
2019-02-09T17:08:26.328Z,7.97
2019-02-09T17:11:30.188Z,6.60
2019-02-09T17:14:34.005Z,7.20
2019-02-09T17:17:37.849Z,7.80
2019-02-09T17:20:41.646Z,7.33
2019-02-09T17:23:45.452Z,5.63
2019-02-09T17:26:49.328Z,6.87
2019-02-09T17:29:53.167Z,8.23
2019-02-09T17:32:57.095Z,5.33
2019-02-09T17:36:00.885Z,7.90
2019-02-09T17:39:07.363Z,5.40
2019-02-09T17:42:11.230Z,6.80
2019-02-09T17:45:18.390Z,6.63
2019-02-09T17:48:22.369Z,5.20
2019-02-09T17:51:26.229Z,7.37
2019-02-09T17:54:30.118Z,6.47
2019-02-09T17:57:33.932Z,6.77
2019-02-09T18:00:43.181Z,7.37
2019-02-09T18:03:47.112Z,6.03
2019-02-09T18:06:50.974Z,7.07
2019-02-09T18:09:54.802Z,6.37
2019-02-09T18:12:58.726Z,7.03
2019-02-09T18:16:02.703Z,6.80
2019-02-09T18:19:06.671Z,6.43
2019-02-09T18:22:10.644Z,7.63
2019-02-09T18:25:16.387Z,6.47
2019-02-09T18:28:20.328Z,5.67
2019-02-09T18:31:24.255Z,5.30
2019-02-09T18:34:28.045Z,6.03
2019-02-09T18:37:31.843Z,5.87
2019-02-09T18:40:35.783Z,6.27
2019-02-09T18:43:39.594Z,5.70
2019-02-09T18:46:43.453Z,6.27
2019-02-09T18:49:47.255Z,7.10
2019-02-09T18:52:51.208Z,6.80
2019-02-09T18:55:55.022Z,5.83
2019-02-09T18:58:58.827Z,4.30
2019-02-09T19:02:02.776Z,5.23
2019-02-09T19:05:07.406Z,6.40
2019-02-09T19:08:11.352Z,5.87
2019-02-09T19:11:15.212Z,4.30
2019-02-09T19:14:19.139Z,7.03
2019-02-09T19:17:23.292Z,6.47
2019-02-09T19:20:30.136Z,6.77
2019-02-09T19:23:34.025Z,6.50
2019-02-09T19:26:37.978Z,4.80
2019-02-09T19:29:41.865Z,5.07
2019-02-09T19:32:45.759Z,4.67
2019-02-09T19:35:49.743Z,6.40
2019-02-09T19:38:53.557Z,6.37
2019-02-09T19:41:57.365Z,5.47
2019-02-09T19:45:01.237Z,8.03
2019-02-09T19:48:06.103Z,7.13
2019-02-09T19:51:09.909Z,6.73
2019-02-09T19:54:13.716Z,6.00
2019-02-09T19:57:17.490Z,4.77
2019-02-09T20:00:30.102Z,5.57
2019-02-09T20:03:33.902Z,5.03
2019-02-09T20:06:37.756Z,5.63
2019-02-09T20:09:41.536Z,6.23
2019-02-09T20:12:45.434Z,5.23
2019-02-09T20:15:49.408Z,6.30
2019-02-09T20:18:53.204Z,5.53
2019-02-09T20:21:57.101Z,5.37
2019-02-09T20:25:00.899Z,6.17
2019-02-09T20:28:05.275Z,4.97
2019-02-09T20:31:09.138Z,7.03
2019-02-09T20:34:12.963Z,6.27
2019-02-09T20:37:16.816Z,6.67
2019-02-09T20:40:23.697Z,5.43
2019-02-09T20:43:27.580Z,3.93
2019-02-09T20:46:31.394Z,4.93
2019-02-09T20:49:35.222Z,6.90
2019-02-09T20:52:39.032Z,5.97
2019-02-09T20:55:43.174Z,5.90
2019-02-09T20:58:46.981Z,6.07
2019-02-09T21:01:50.810Z,5.83
2019-02-09T21:04:54.607Z,5.73
2019-02-09T21:07:58.505Z,5.43
2019-02-09T21:11:02.403Z,5.80
2019-02-09T21:14:06.205Z,6.00
2019-02-09T21:17:09.987Z,5.33
2019-02-09T21:20:14.903Z,5.80
2019-02-09T21:23:18.738Z,6.10
2019-02-09T21:26:22.580Z,4.90
2019-02-09T21:29:26.387Z,6.67
2019-02-09T21:32:30.195Z,6.63
2019-02-09T21:35:34.178Z,5.03
2019-02-09T21:38:37.976Z,4.30
2019-02-09T21:41:41.788Z,4.43
2019-02-09T21:44:45.617Z,4.47
2019-02-09T21:47:50.401Z,3.80
2019-02-09T21:50:54.277Z,5.23
2019-02-09T21:53:58.083Z,5.10
2019-02-09T21:57:01.899Z,3.67
2019-02-09T22:00:10.149Z,4.43
2019-02-09T22:03:14.455Z,3.77
2019-02-09T22:06:18.401Z,5.97
2019-02-09T22:09:22.188Z,4.50
2019-02-09T22:12:25.989Z,4.60
2019-02-09T22:15:38.322Z,5.00
2019-02-09T22:18:36.273Z,5.67
2019-02-09T22:21:40.557Z,4.53
2019-02-09T22:24:44.536Z,6.37
2019-02-09T22:27:48.914Z,6.10
2019-02-09T22:30:52.789Z,5.33
2019-02-09T22:33:56.634Z,4.30
2019-02-09T22:37:00.396Z,4.80
2019-02-09T22:40:05.966Z,5.10
2019-02-09T22:43:10.226Z,5.30
2019-02-09T22:46:14.028Z,4.60
2019-02-09T22:49:17.853Z,4.80
2019-02-09T22:52:21.784Z,4.70
2019-02-09T22:55:26.060Z,5.10
2019-02-09T22:58:29.855Z,5.80
2019-02-09T23:01:46.319Z,5.57
2019-02-09T23:04:57.931Z,5.67
2019-02-09T23:08:01.710Z,4.80
2019-02-09T23:11:05.673Z,4.23
2019-02-09T23:14:09.551Z,4.03
2019-02-09T23:17:13.351Z,5.67
2019-02-09T23:20:17.159Z,4.73
2019-02-09T23:23:20.969Z,4.53
2019-02-09T23:26:24.771Z,3.70
2019-02-09T23:29:28.679Z,5.60
2019-02-09T23:32:32.492Z,4.73
2019-02-09T23:35:36.318Z,4.80
2019-02-09T23:38:40.126Z,4.77
2019-02-09T23:41:43.926Z,4.60
2019-02-09T23:44:47.735Z,2.80
2019-02-09T23:47:51.649Z,5.03
2019-02-09T23:50:55.436Z,3.57
2019-02-09T23:53:59.248Z,4.57
2019-02-09T23:57:03.036Z,4.07
